Time;durP1;ratioP1;P1;durP2;ratioP2;P2;SDS_P1;SDS_P2;PMS_P1;PMS_P2;Temp;Humidity;BMP_temperature;BMP_pressure;BME280_temperature;BME280_humidity;BME280_pressure;Samples;Min_cycle;Max_cycle;Signal;HPM_P1;HPM_P2
2023/05/15 00:01:00;;;;;;;3.00;1.30;;;17.90;57.10;;;;;;2508621;55;20952;-77
2023/05/15 00:03:27;;;;;;;2.67;1.30;;;17.90;57.20;;;;;;2514142;54;21502;-74
2023/05/15 00:05:53;;;;;;;2.87;1.40;;;17.80;57.20;;;;;;2278941;56;20918;-74
2023/05/15 00:08:20;;;;;;;2.35;1.20;;;17.80;57.30;;;;;;2279895;56;20986;-74
2023/05/15 00:10:48;;;;;;;2.17;1.08;;;17.90;57.40;;;;;;2514717;54;20963;-74
2023/05/15 00:13:25;;;;;;;2.22;1.10;;;17.80;57.20;;;;;;2515324;54;21811;-73
2023/05/15 00:15:52;;;;;;;1.95;0.90;;;17.80;57.20;;;;;;2282306;56;21428;-75
2023/05/15 00:18:18;;;;;;;2.20;1.05;;;17.80;57.20;;;;;;2286146;56;21043;-73
2023/05/15 00:20:44;;;;;;;2.42;1.00;;;17.80;57.20;;;;;;2513296;54;21720;-74
2023/05/15 00:23:10;;;;;;;2.12;0.98;;;17.80;57.20;;;;;;2514896;54;21014;-75
2023/05/15 00:25:37;;;;;;;2.45;1.10;;;17.80;57.20;;;;;;2520802;54;20930;-73
2023/05/15 00:28:06;;;;;;;2.00;0.85;;;17.70;57.10;;;;;;2522540;54;20977;-75
2023/05/15 00:30:33;;;;;;;2.45;1.10;;;17.70;57.10;;;;;;2288210;56;21005;-76
2023/05/15 00:32:59;;;;;;;2.60;1.12;;;17.70;57.70;;;;;;2287576;56;20993;-77
2023/05/15 00:35:28;;;;;;;2.30;0.98;;;17.70;57.10;;;;;;2520762;54;20997;-77
2023/05/15 00:37:55;;;;;;;1.95;0.98;;;17.60;57.00;;;;;;2519991;54;20926;-76
2023/05/15 00:40:22;;;;;;;1.87;1.00;;;17.60;57.00;;;;;;2520601;54;21416;-76
2023/05/15 00:42:48;;;;;;;2.22;1.00;;;17.60;57.00;;;;;;2286430;56;21042;-75
2023/05/15 00:45:15;;;;;;;2.28;1.10;;;17.60;57.00;;;;;;2520200;54;20942;-75
2023/05/15 00:47:41;;;;;;;2.53;1.30;;;17.50;56.90;;;;;;2520583;54;21914;-76
2023/05/15 00:50:09;;;;;;;2.90;1.20;;;17.50;56.90;;;;;;2285752;56;21008;-76
2023/05/15 00:52:44;;;;;;;3.15;1.30;;;17.40;56.90;;;;;;2519727;54;20993;-76
2023/05/15 00:55:11;;;;;;;2.47;1.08;;;17.40;56.80;;;;;;2519213;54;21608;-74
2023/05/15 00:57:42;;;;;;;2.90;1.00;;;17.40;56.90;;;;;;2519623;54;20969;-75
2023/05/15 01:00:15;;;;;;;2.28;1.10;;;17.30;56.90;;;;;;2286279;56;21084;-75
2023/05/15 01:02:44;;;;;;;2.22;1.05;;;17.30;57.00;;;;;;2281987;55;21025;-75
2023/05/15 01:05:11;;;;;;;2.53;1.00;;;17.30;57.00;;;;;;2519896;54;21548;-76
2023/05/15 01:07:44;;;;;;;4.22;0.93;;;17.20;56.90;;;;;;2521273;54;21009;-76
2023/05/15 01:10:14;;;;;;;2.90;1.37;;;17.10;56.80;;;;;;2520823;54;20990;-75
2023/05/15 01:12:42;;;;;;;2.25;0.80;;;17.10;56.80;;;;;;2519772;54;20979;-76
2023/05/15 01:15:10;;;;;;;2.22;1.02;;;17.10;56.80;;;;;;2283529;55;20993;-75
2023/05/15 01:17:37;;;;;;;2.28;0.95;;;17.10;56.80;;;;;;2289493;56;20974;-75
2023/05/15 01:20:05;;;;;;;2.50;1.02;;;17.00;56.70;;;;;;2520258;54;21017;-75
2023/05/15 01:23:08;;;;;;;2.62;1.05;;;17.00;56.80;;;;;;2521183;54;20990;-75
2023/05/15 01:37:08;;;;;;;1.60;0.77;;;16.90;56.60;;;;;;2286359;55;21497;-76
2023/05/15 01:39:34;;;;;;;2.17;1.00;;;16.70;56.60;;;;;;2289859;56;21773;-77
2023/05/15 01:42:06;;;;;;;2.05;0.88;;;16.70;56.80;;;;;;2504164;54;20918;-75
2023/05/15 01:44:37;;;;;;;1.98;0.80;;;16.60;56.90;;;;;;2288137;56;20957;-75
2023/05/15 01:47:09;;;;;;;3.35;1.00;;;16.60;57.10;;;;;;2287288;56;21818;-76
2023/05/15 01:49:36;;;;;;;1.70;0.80;;;16.50;57.10;;;;;;2288390;56;20997;-75
2023/05/15 01:52:11;;;;;;;2.03;0.85;;;16.50;57.80;;;;;;2287687;56;20966;-76
2023/05/15 01:54:37;;;;;;;1.92;0.90;;;16.50;57.20;;;;;;2287577;56;21441;-76
2023/05/15 01:57:03;;;;;;;1.95;0.82;;;16.50;57.20;;;;;;2287683;56;20993;-75
2023/05/15 01:59:30;;;;;;;2.15;0.90;;;16.40;57.20;;;;;;2288348;56;20930;-77
2023/05/15 02:01:56;;;;;;;2.62;1.25;;;16.50;57.30;;;;;;2522097;54;20961;-75
2023/05/15 02:04:23;;;;;;;2.20;1.00;;;16.40;57.30;;;;;;2288475;56;20970;-76
2023/05/15 02:06:49;;;;;;;2.30;1.08;;;16.40;57.30;;;;;;2516481;55;20932;-76
2023/05/15 02:09:15;;;;;;;1.77;0.77;;;16.40;57.30;;;;;;2287156;56;20938;-76
2023/05/15 02:11:42;;;;;;;2.20;0.90;;;16.40;57.30;;;;;;2522991;54;21013;-77
2023/05/15 02:14:08;;;;;;;2.40;1.00;;;16.40;57.30;;;;;;2522246;54;21009;-77
2023/05/15 02:16:35;;;;;;;1.77;0.75;;;16.30;57.20;;;;;;2288550;55;20930;-76
2023/05/15 02:19:01;;;;;;;1.92;1.00;;;16.30;57.30;;;;;;2287466;56;21451;-76
2023/05/15 02:21:28;;;;;;;2.25;1.02;;;16.30;57.30;;;;;;2522412;54;21388;-76
2023/05/15 02:23:55;;;;;;;2.12;1.00;;;16.30;57.40;;;;;;2286713;56;21019;-75
2023/05/15 02:26:59;;;;;;;2.20;1.00;;;16.30;57.40;;;;;;2522934;54;20990;-77
2023/05/15 02:31:23;;;;;;;2.22;1.00;;;16.30;57.40;;;;;;2522655;54;21839;-76
2023/05/15 02:34:16;;;;;;;2.25;0.95;;;16.20;57.40;;;;;;2288482;56;21026;-76
2023/05/15 02:36:45;;;;;;;2.08;1.00;;;16.20;57.30;;;;;;2287858;56;20934;-76
2023/05/15 02:39:11;;;;;;;2.10;1.00;;;16.20;57.40;;;;;;2287683;56;20964;-77
2023/05/15 02:41:38;;;;;;;2.30;0.98;;;16.20;57.50;;;;;;2523085;54;21053;-75
2023/05/15 02:44:04;;;;;;;2.70;0.88;;;16.20;57.60;;;;;;2287427;56;21504;-76
2023/05/15 02:46:30;;;;;;;1.95;0.77;;;16.10;57.50;;;;;;2288538;56;20938;-76
2023/05/15 02:48:57;;;;;;;2.08;0.90;;;16.10;57.60;;;;;;2287635;56;20941;-75
2023/05/15 02:51:23;;;;;;;2.28;0.82;;;16.10;57.60;;;;;;2522783;54;21463;-75
2023/05/15 02:53:50;;;;;;;1.77;0.93;;;16.10;57.70;;;;;;2288431;56;21009;-75
2023/05/15 02:56:18;;;;;;;2.62;0.93;;;16.10;57.60;;;;;;2287893;56;20957;-76
2023/05/15 02:58:45;;;;;;;3.10;1.15;;;16.10;57.70;;;;;;2522473;54;21415;-76
2023/05/15 03:01:12;;;;;;;1.37;0.70;;;16.10;57.70;;;;;;2521936;54;20950;-76
2023/05/15 03:03:38;;;;;;;2.25;1.05;;;16.10;57.70;;;;;;2522661;54;20907;-76
2023/05/15 03:06:08;;;;;;;3.35;0.93;;;16.10;57.70;;;;;;2522383;54;20978;-76
2023/05/15 03:08:34;;;;;;;2.30;1.05;;;16.10;57.80;;;;;;2287581;56;21679;-74
2023/05/15 03:11:00;;;;;;;2.40;1.00;;;16.10;57.80;;;;;;2517762;54;20979;-75
2023/05/15 03:13:29;;;;;;;2.70;1.12;;;16.00;57.70;;;;;;2520877;54;21459;-74
2023/05/15 03:15:56;;;;;;;2.67;1.00;;;16.00;57.70;;;;;;2283223;56;21013;-77
2023/05/15 03:18:22;;;;;;;2.42;0.93;;;16.00;57.80;;;;;;2520714;54;22002;-75
2023/05/15 03:20:51;;;;;;;2.30;1.12;;;16.00;57.80;;;;;;2520553;54;20914;-77
2023/05/15 03:23:17;;;;;;;2.05;1.08;;;16.10;57.90;;;;;;2286080;56;21889;-76
2023/05/15 03:25:44;;;;;;;2.72;1.10;;;16.00;57.80;;;;;;2286249;56;21328;-75
2023/05/15 03:28:11;;;;;;;2.87;1.10;;;16.00;57.80;;;;;;2517753;54;21057;-75
2023/05/15 03:30:37;;;;;;;1.98;1.05;;;16.00;57.90;;;;;;2519644;54;20961;-75
2023/05/15 03:33:07;;;;;;;2.65;1.30;;;16.00;57.90;;;;;;2284882;56;21025;-77
2023/05/15 03:35:35;;;;;;;2.42;1.05;;;16.00;57.90;;;;;;2520586;54;20930;-77
2023/05/15 03:38:02;;;;;;;2.30;1.00;;;16.00;57.90;;;;;;2285949;56;20969;-76
2023/05/15 03:40:29;;;;;;;2.25;1.10;;;16.00;58.00;;;;;;2284152;56;20962;-77
2023/05/15 03:42:58;;;;;;;1.92;1.00;;;15.90;57.90;;;;;;2283470;56;20966;-75
2023/05/15 03:45:26;;;;;;;2.00;0.80;;;15.90;57.90;;;;;;2283132;55;20995;-75
2023/05/15 03:47:53;;;;;;;2.78;1.33;;;15.90;58.00;;;;;;2283585;56;21029;-76
2023/05/15 03:50:19;;;;;;;2.45;1.23;;;15.90;58.00;;;;;;2517814;54;20962;-75
2023/05/15 03:52:47;;;;;;;1.98;0.93;;;16.00;58.20;;;;;;2517837;54;20998;-76
2023/05/15 03:55:14;;;;;;;2.75;1.00;;;15.90;58.10;;;;;;2517091;54;22074;-76
2023/05/15 03:57:52;;;;;;;4.78;2.17;;;15.90;58.10;;;;;;2518081;54;20910;-76
2023/05/15 04:00:19;;;;;;;4.18;2.20;;;15.90;58.20;;;;;;2283561;55;20952;-76
2023/05/15 04:02:47;;;;;;;4.90;1.85;;;15.90;58.20;;;;;;2283591;56;20926;-75
2023/05/15 04:05:25;;;;;;;3.50;1.42;;;15.90;58.30;;;;;;2518384;54;21823;-76
2023/05/15 04:07:52;;;;;;;2.72;1.20;;;15.90;58.30;;;;;;2517298;54;21552;-75
2023/05/15 04:10:18;;;;;;;2.28;1.12;;;15.90;58.40;;;;;;2287032;55;21053;-77
2023/05/15 04:12:48;;;;;;;2.80;1.35;;;15.90;58.50;;;;;;2517261;54;20989;-77
2023/05/15 04:15:21;;;;;;;2.83;1.10;;;16.00;58.60;;;;;;2285775;56;22058;-75
2023/05/15 04:17:49;;;;;;;2.80;1.20;;;16.00;58.70;;;;;;2520518;54;20925;-76
2023/05/15 04:20:20;;;;;;;2.75;1.20;;;16.00;58.70;;;;;;2285780;56;20993;-76
2023/05/15 04:22:46;;;;;;;2.62;1.17;;;16.00;58.80;;;;;;2520556;54;21061;-76
2023/05/15 04:25:13;;;;;;;2.00;0.93;;;16.00;58.80;;;;;;2520099;54;21022;-77
2023/05/15 04:27:42;;;;;;;2.45;1.25;;;16.00;58.80;;;;;;2286471;56;20938;-75
2023/05/15 04:30:10;;;;;;;2.60;1.17;;;16.10;59.50;;;;;;2519673;54;20994;-75
2023/05/15 04:32:37;;;;;;;2.85;1.08;;;16.10;59.00;;;;;;2522170;54;21415;-76
2023/05/15 04:35:08;;;;;;;2.30;1.20;;;16.10;59.00;;;;;;2522405;54;21388;-74
2023/05/15 04:37:35;;;;;;;3.30;1.37;;;16.10;59.00;;;;;;2522756;54;20970;-76
2023/05/15 04:40:06;;;;;;;2.72;1.30;;;16.10;59.00;;;;;;2287563;56;20949;-76
2023/05/15 04:42:33;;;;;;;2.15;1.08;;;16.20;59.10;;;;;;2287707;56;20994;-77
2023/05/15 04:45:01;;;;;;;2.92;1.40;;;16.20;59.00;;;;;;2287201;56;20933;-76
2023/05/15 04:47:28;;;;;;;3.55;1.60;;;16.20;59.10;;;;;;2288120;56;20930;-77
2023/05/15 04:49:55;;;;;;;3.03;1.62;;;16.20;59.10;;;;;;2522138;54;20976;-75
2023/05/15 04:52:21;;;;;;;2.62;1.50;;;16.30;59.20;;;;;;2287558;56;20997;-76
2023/05/15 04:54:49;;;;;;;3.70;1.58;;;16.30;59.20;;;;;;2522462;54;20942;-76
2023/05/15 04:57:16;;;;;;;3.03;1.60;;;16.30;59.30;;;;;;2287522;55;20940;-76
2023/05/15 04:59:42;;;;;;;2.15;1.10;;;16.30;59.30;;;;;;2287636;56;21222;-75
2023/05/15 05:02:09;;;;;;;2.33;1.05;;;16.30;59.30;;;;;;2515769;55;20932;-74
2023/05/15 05:04:36;;;;;;;1.90;0.80;;;16.30;59.30;;;;;;2287402;56;21699;-75
2023/05/15 05:07:04;;;;;;;2.12;1.00;;;16.40;59.30;;;;;;2520456;54;20929;-76
2023/05/15 05:09:31;;;;;;;2.20;0.93;;;16.40;59.30;;;;;;2520914;54;21398;-77
2023/05/15 05:12:01;;;;;;;3.65;1.40;;;16.40;59.30;;;;;;2516822;54;20958;-78
2023/05/15 05:14:28;;;;;;;2.60;1.17;;;16.40;59.40;;;;;;2289263;56;20968;-77
2023/05/15 05:16:54;;;;;;;2.65;1.30;;;16.50;59.50;;;;;;2283449;55;21029;-76
2023/05/15 05:19:22;;;;;;;3.78;1.70;;;16.50;59.60;;;;;;2285311;56;20918;-77
2023/05/15 05:21:50;;;;;;;3.17;1.37;;;16.50;59.50;;;;;;2518013;54;20984;-76
2023/05/15 05:24:17;;;;;;;2.65;1.33;;;16.60;59.70;;;;;;2514296;54;20946;-76
2023/05/15 05:26:43;;;;;;;2.30;1.10;;;16.60;60.30;;;;;;2519669;54;21849;-76
2023/05/15 05:29:10;;;;;;;2.47;1.20;;;16.60;59.80;;;;;;2517221;54;21444;-77
2023/05/15 05:31:36;;;;;;;2.37;1.25;;;16.60;59.80;;;;;;2283156;55;20961;-75
2023/05/15 05:34:02;;;;;;;2.50;1.20;;;16.70;60.00;;;;;;2522133;54;21447;-76
2023/05/15 05:36:29;;;;;;;2.53;1.37;;;16.60;59.90;;;;;;2522898;54;21020;-76
2023/05/15 05:38:55;;;;;;;4.25;1.60;;;16.70;60.00;;;;;;2522795;54;20921;-76
2023/05/15 05:41:24;;;;;;;2.40;1.30;;;16.80;60.10;;;;;;2288051;56;20954;-77
2023/05/15 05:43:50;;;;;;;2.33;1.10;;;16.80;60.10;;;;;;2286611;55;21846;-78
2023/05/15 05:46:18;;;;;;;2.25;1.02;;;16.80;60.20;;;;;;2519992;54;22322;-77
2023/05/15 05:48:44;;;;;;;2.37;1.20;;;16.90;60.30;;;;;;2522178;54;21828;-79
2023/05/15 05:51:10;;;;;;;3.35;1.60;;;16.90;60.30;;;;;;2521187;54;20934;-77
2023/05/15 05:53:36;;;;;;;3.05;1.50;;;17.00;60.40;;;;;;2288168;56;21009;-77
2023/05/15 05:56:06;;;;;;;2.87;1.48;;;17.00;60.30;;;;;;2287640;56;21026;-76
2023/05/15 05:58:32;;;;;;;2.40;1.30;;;17.10;60.40;;;;;;2287921;56;20906;-76
2023/05/15 06:01:00;;;;;;;2.03;1.02;;;17.10;60.40;;;;;;2287552;56;20966;-76
2023/05/15 06:03:26;;;;;;;2.62;1.02;;;17.20;60.50;;;;;;2287177;56;21057;-74
2023/05/15 06:05:52;;;;;;;2.30;1.10;;;17.20;60.40;;;;;;2287650;56;21018;-75
2023/05/15 06:08:20;;;;;;;2.15;1.10;;;17.30;60.50;;;;;;2521591;54;20990;-75
2023/05/15 06:10:56;;;;;;;3.05;1.20;;;17.30;60.50;;;;;;2288215;56;20950;-76
2023/05/15 06:13:22;;;;;;;2.35;1.20;;;17.40;60.40;;;;;;2287139;55;21093;-78
2023/05/15 06:15:50;;;;;;;2.22;1.12;;;17.40;60.20;;;;;;2522109;54;20954;-76
2023/05/15 06:18:16;;;;;;;3.30;1.23;;;17.50;60.30;;;;;;2287170;56;20954;-76
2023/05/15 06:20:42;;;;;;;2.90;1.50;;;17.50;60.20;;;;;;2290210;56;20976;-78
2023/05/15 06:23:09;;;;;;;3.10;1.50;;;17.50;60.20;;;;;;2268095;56;20941;-75
2023/05/15 06:25:35;;;;;;;2.60;1.30;;;17.60;60.30;;;;;;2520813;54;20987;-75
2023/05/15 06:28:03;;;;;;;2.35;1.12;;;17.60;60.10;;;;;;2284481;55;20934;-75
2023/05/15 06:30:29;;;;;;;2.45;1.23;;;17.60;60.00;;;;;;2522198;54;20954;-75
2023/05/15 06:32:55;;;;;;;2.75;1.40;;;17.70;60.10;;;;;;2287257;56;20942;-75
2023/05/15 06:35:25;;;;;;;3.25;1.48;;;17.70;60.00;;;;;;2287475;56;21427;-76
2023/05/15 06:37:52;;;;;;;3.03;1.40;;;17.70;60.00;;;;;;2519594;54;21058;-76
2023/05/15 06:40:19;;;;;;;2.55;1.33;;;17.80;60.10;;;;;;2288908;56;20942;-76
2023/05/15 06:42:46;;;;;;;3.05;1.40;;;17.80;60.10;;;;;;2517625;54;21013;-74
2023/05/15 06:45:13;;;;;;;3.50;1.67;;;17.80;60.00;;;;;;2520279;54;20942;-76
2023/05/15 06:47:42;;;;;;;3.10;1.52;;;17.80;60.00;;;;;;2522091;54;21654;-76
2023/05/15 06:50:10;;;;;;;2.85;1.50;;;17.90;60.00;;;;;;2522000;54;20986;-74
2023/05/15 06:52:37;;;;;;;2.85;1.50;;;17.90;60.00;;;;;;2522940;54;20923;-75
2023/05/15 06:55:06;;;;;;;3.30;1.45;;;17.90;60.00;;;;;;2520865;54;20962;-75
2023/05/15 06:57:33;;;;;;;2.60;1.50;;;17.90;60.00;;;;;;2282508;56;22070;-75
2023/05/15 06:59:59;;;;;;;3.40;1.52;;;18.00;60.00;;;;;;2516105;54;21322;-74
2023/05/15 07:02:25;;;;;;;2.85;1.60;;;18.00;60.00;;;;;;2514794;54;20977;-77
2023/05/15 07:04:52;;;;;;;3.00;1.70;;;18.00;60.70;;;;;;2281713;56;20902;-75
2023/05/15 07:07:18;;;;;;;3.72;1.80;;;18.10;60.20;;;;;;2515265;54;20966;-75
2023/05/15 07:09:47;;;;;;;3.20;1.50;;;18.10;60.30;;;;;;2280776;56;21120;-75
2023/05/15 07:12:14;;;;;;;2.92;1.50;;;18.10;60.30;;;;;;2514031;54;20934;-77
2023/05/15 07:14:44;;;;;;;3.20;1.87;;;18.20;60.40;;;;;;2514303;54;20996;-76
2023/05/15 07:17:10;;;;;;;3.45;2.10;;;18.20;60.40;;;;;;2515952;54;21005;-75
2023/05/15 07:19:37;;;;;;;2.60;1.52;;;18.30;60.40;;;;;;2286259;56;20957;-75
2023/05/15 07:22:04;;;;;;;2.28;1.27;;;18.30;60.40;;;;;;2520216;54;21537;-75
2023/05/15 07:24:33;;;;;;;2.42;1.37;;;18.40;60.50;;;;;;2514925;54;21763;-75
2023/05/15 07:27:00;;;;;;;2.65;1.45;;;18.40;60.60;;;;;;2271406;55;20952;-75
2023/05/15 07:29:26;;;;;;;2.70;1.70;;;18.50;60.80;;;;;;2502848;54;21018;-75
2023/05/15 07:31:53;;;;;;;4.18;1.90;;;18.50;60.80;;;;;;2512464;54;21032;-75
2023/05/15 07:34:19;;;;;;;3.25;1.42;;;18.60;61.00;;;;;;2509296;54;20922;-76
2023/05/15 07:36:46;;;;;;;4.03;2.08;;;18.70;61.20;;;;;;2504600;54;21015;-74
2023/05/15 07:39:13;;;;;;;2.90;1.60;;;18.80;61.20;;;;;;2270588;55;21472;-75
2023/05/15 07:41:40;;;;;;;2.95;1.65;;;18.90;61.10;;;;;;2502617;54;21066;-76
2023/05/15 07:44:07;;;;;;;2.95;1.67;;;19.00;60.90;;;;;;2501887;54;20926;-74
2023/05/15 07:46:34;;;;;;;3.17;1.45;;;19.00;60.60;;;;;;2272039;56;20945;-74
2023/05/15 07:49:04;;;;;;;3.15;1.58;;;19.10;60.50;;;;;;2503352;54;20942;-74
2023/05/15 07:51:31;;;;;;;2.97;1.70;;;19.20;60.50;;;;;;2496580;54;21010;-75
2023/05/15 07:54:02;;;;;;;3.70;1.70;;;19.20;60.20;;;;;;2270690;56;20993;-76
2023/05/15 07:56:33;;;;;;;2.72;1.45;;;19.30;60.30;;;;;;2273311;55;20934;-74
2023/05/15 07:58:59;;;;;;;2.67;1.37;;;19.40;60.30;;;;;;2272202;56;20989;-74
2023/05/15 08:01:27;;;;;;;2.78;1.58;;;19.40;60.20;;;;;;2270947;55;21067;-76
2023/05/15 08:03:54;;;;;;;2.80;1.50;;;19.50;60.20;;;;;;2504188;54;20926;-76
2023/05/15 08:06:21;;;;;;;2.75;1.50;;;19.50;60.00;;;;;;2274943;56;20955;-74
2023/05/15 08:08:50;;;;;;;3.00;1.58;;;19.60;60.10;;;;;;2269219;55;21037;-74
2023/05/15 08:11:18;;;;;;;2.95;1.73;;;19.70;60.30;;;;;;2506732;54;21317;-76
2023/05/15 08:13:48;;;;;;;3.22;1.87;;;19.70;60.10;;;;;;2273127;56;20994;-74
2023/05/15 08:16:14;;;;;;;3.87;1.70;;;19.80;60.00;;;;;;2272683;55;20929;-74
2023/05/15 08:18:42;;;;;;;2.87;1.55;;;19.80;60.00;;;;;;2504640;54;21017;-75
2023/05/15 08:21:10;;;;;;;4.05;1.80;;;19.90;60.00;;;;;;2269645;56;20951;-74
2023/05/15 08:23:37;;;;;;;3.25;1.60;;;19.90;59.70;;;;;;2269823;55;20922;-76
2023/05/15 08:26:05;;;;;;;3.30;1.80;;;20.00;59.60;;;;;;2506731;54;22650;-74
2023/05/15 08:28:35;;;;;;;2.80;1.60;;;20.00;59.30;;;;;;2504443;54;21021;-74
2023/05/15 08:31:11;;;;;;;3.03;1.80;;;20.10;59.40;;;;;;2506081;54;21061;-74
2023/05/15 08:33:40;;;;;;;3.83;1.70;;;20.10;59.00;;;;;;2502710;54;20910;-74
2023/05/15 08:36:07;;;;;;;3.20;1.85;;;20.20;59.40;;;;;;2504554;54;20946;-74
2023/05/15 08:38:34;;;;;;;4.65;1.67;;;20.20;59.50;;;;;;2272453;56;21593;-74
2023/05/15 08:41:15;;;;;;;3.58;1.77;;;20.20;59.50;;;;;;2499881;54;20954;-75
2023/05/15 08:43:41;;;;;;;3.87;1.62;;;20.30;59.40;;;;;;2275139;56;21016;-76
2023/05/15 08:46:17;;;;;;;2.90;1.50;;;20.30;59.40;;;;;;2500980;54;20954;-75
2023/05/15 08:48:43;;;;;;;3.03;1.75;;;20.40;59.30;;;;;;2271867;56;21579;-74
2023/05/15 08:51:11;;;;;;;3.05;1.70;;;20.40;59.20;;;;;;2505030;54;21026;-74
2023/05/15 08:53:43;;;;;;;3.20;1.80;;;20.50;59.10;;;;;;2506128;54;20989;-75
2023/05/15 08:56:10;;;;;;;3.00;1.50;;;20.50;59.10;;;;;;2271984;56;20953;-73
2023/05/15 08:58:39;;;;;;;4.65;1.98;;;20.60;59.30;;;;;;2506637;54;21908;-75
2023/05/15 09:01:05;;;;;;;3.10;1.67;;;20.60;59.30;;;;;;2271389;56;21926;-74
2023/05/15 09:03:36;;;;;;;2.60;1.50;;;20.60;59.10;;;;;;2273359;56;21080;-75
2023/05/15 09:06:04;;;;;;;2.40;1.30;;;20.70;58.90;;;;;;2273905;56;20975;-74
2023/05/15 09:08:33;;;;;;;3.42;1.73;;;20.80;58.70;;;;;;2509356;54;21487;-74
2023/05/15 09:11:00;;;;;;;3.40;2.03;;;20.80;58.70;;;;;;2506015;54;20934;-74
2023/05/15 09:13:27;;;;;;;4.57;1.60;;;20.80;58.70;;;;;;2277425;56;20958;-75
2023/05/15 09:15:54;;;;;;;3.00;1.40;;;20.90;58.70;;;;;;2282549;56;21944;-74
2023/05/15 09:18:24;;;;;;;3.40;1.80;;;20.90;58.60;;;;;;2506955;54;21061;-73
2023/05/15 09:20:51;;;;;;;3.17;1.90;;;21.00;58.60;;;;;;2281027;55;21024;-74
2023/05/15 09:23:26;;;;;;;2.67;1.65;;;21.00;58.60;;;;;;2277919;55;21024;-76
2023/05/15 09:25:57;;;;;;;2.80;1.55;;;21.10;59.10;;;;;;2281336;56;22180;-75
2023/05/15 09:28:28;;;;;;;3.15;1.90;;;21.10;58.50;;;;;;2281855;56;22014;-75
2023/05/15 09:31:01;;;;;;;3.28;1.95;;;21.20;58.40;;;;;;2271250;55;20941;-75
2023/05/15 09:33:36;;;;;;;3.00;1.90;;;21.30;58.60;;;;;;2509798;54;20970;-75
2023/05/15 09:36:08;;;;;;;3.30;2.10;;;21.30;58.50;;;;;;2279455;56;21473;-75
2023/05/15 09:38:47;;;;;;;3.37;1.90;;;21.40;58.40;;;;;;2513068;54;21380;-77
2023/05/15 09:41:13;;;;;;;3.10;1.83;;;21.50;58.40;;;;;;2280183;56;21380;-75
2023/05/15 09:43:40;;;;;;;5.50;2.22;;;21.60;58.60;;;;;;2515982;54;21858;-76
2023/05/15 09:46:07;;;;;;;2.90;1.65;;;21.60;58.50;;;;;;2279125;56;20991;-74
2023/05/15 09:48:35;;;;;;;3.58;1.60;;;21.70;58.50;;;;;;2277818;55;20999;-75
2023/05/15 09:51:04;;;;;;;3.55;1.52;;;21.80;58.40;;;;;;2274318;55;20984;-75
2023/05/15 09:53:31;;;;;;;3.17;1.70;;;21.80;58.20;;;;;;2275093;55;20981;-76
2023/05/15 09:55:57;;;;;;;2.87;1.58;;;21.90;58.10;;;;;;2510335;54;20922;-75
2023/05/15 09:58:24;;;;;;;3.40;2.00;;;22.00;58.00;;;;;;2277270;55;20894;-75
2023/05/15 10:00:51;;;;;;;3.42;1.77;;;22.00;58.00;;;;;;2490669;55;21829;-74
2023/05/15 10:03:19;;;;;;;2.70;1.52;;;22.00;58.00;;;;;;2476404;55;21009;-76
2023/05/15 10:05:50;;;;;;;3.05;1.50;;;22.10;58.10;;;;;;2490441;55;21081;-74
2023/05/15 10:08:28;;;;;;;2.47;1.37;;;22.10;58.00;;;;;;2259875;55;21583;-74
2023/05/15 10:11:00;;;;;;;3.08;1.60;;;22.20;57.50;;;;;;2507066;54;20974;-74
2023/05/15 10:13:31;;;;;;;3.62;1.70;;;22.20;57.60;;;;;;2271211;55;21720;-74
2023/05/15 10:16:08;;;;;;;3.03;1.50;;;22.20;57.50;;;;;;2496594;54;21610;-74
2023/05/15 10:18:36;;;;;;;3.00;1.65;;;22.30;57.40;;;;;;2482993;54;21801;-74
2023/05/15 10:21:05;;;;;;;2.92;1.52;;;22.30;57.50;;;;;;2478477;55;21049;-75
2023/05/15 10:23:37;;;;;;;2.58;1.50;;;22.30;57.50;;;;;;2487440;54;20989;-75
2023/05/15 10:26:37;;;;;;;3.67;1.23;;;22.40;57.30;;;;;;2487067;54;21392;-74
2023/05/15 10:29:22;;;;;;;2.75;1.55;;;22.40;56.80;;;;;;2490160;54;21383;-74
2023/05/15 10:32:01;;;;;;;3.33;1.75;;;22.40;56.70;;;;;;2488936;54;21415;-75
2023/05/15 10:34:38;;;;;;;3.33;1.55;;;22.50;57.20;;;;;;2467335;54;21755;-75
2023/05/15 10:37:34;;;;;;;;;;;;;;;;;;;;;
2023/05/15 10:40:32;;;;;;;3.20;2.08;;;22.50;57.10;;;;;;2455167;54;21564;-74
2023/05/15 10:43:02;;;;;;;2.47;1.48;;;22.60;57.40;;;;;;2381302;55;20988;-74
2023/05/15 10:46:05;;;;;;;3.25;1.67;;;22.60;57.40;;;;;;2385765;55;22488;-74
2023/05/15 10:49:01;;;;;;;2.58;1.37;;;22.70;56.50;;;;;;2391076;55;21030;-74
2023/05/15 10:51:41;;;;;;;3.00;1.33;;;22.80;56.60;;;;;;2385983;55;22395;-74
2023/05/15 10:54:22;;;;;;;2.80;1.50;;;22.80;56.60;;;;;;2402163;55;21972;-74
2023/05/15 10:57:11;;;;;;;2.95;1.40;;;22.90;56.90;;;;;;2402586;55;21580;-74
2023/05/15 10:59:52;;;;;;;2.70;1.60;;;22.90;56.60;;;;;;2178337;56;21460;-75
2023/05/15 11:03:05;;;;;;;;;;;;;;;;;;;;;
2023/05/15 11:07:43;;;;;;;3.25;1.50;;;23.00;56.60;;;;;;2430044;55;20970;-75
2023/05/15 11:10:44;;;;;;;4.47;1.80;;;23.10;56.50;;;;;;2209681;59;21067;-78
2023/05/15 11:24:40;;;;;;;2.85;1.65;;;23.10;56.30;;;;;;2409717;55;22333;-75
2023/05/15 11:27:11;;;;;;;2.17;1.00;;;23.30;56.50;;;;;;2411211;55;21009;-74
2023/05/15 11:30:22;;;;;;;2.50;1.20;;;23.50;57.00;;;;;;2430489;55;21997;-74
2023/05/15 11:33:07;;;;;;;2.60;1.58;;;23.50;56.20;;;;;;2448729;55;21778;-74
2023/05/15 11:35:47;;;;;;;2.60;1.52;;;23.60;56.50;;;;;;2457197;55;21224;-77
2023/05/15 11:38:26;;;;;;;2.95;1.50;;;23.60;55.90;;;;;;2467409;55;20940;-77
2023/05/15 11:40:59;;;;;;;3.12;1.50;;;23.60;56.00;;;;;;2487170;55;20924;-77
2023/05/15 11:43:33;;;;;;;2.70;1.70;;;23.70;56.30;;;;;;2491075;55;21084;-76
2023/05/15 11:46:18;;;;;;;4.85;1.48;;;23.70;56.10;;;;;;2262815;56;20924;-76
2023/05/15 11:48:48;;;;;;;2.90;1.60;;;23.70;55.30;;;;;;2491033;55;21056;-75
2023/05/15 11:51:25;;;;;;;2.53;1.45;;;23.80;55.90;;;;;;2262111;56;21940;-77
2023/05/15 11:53:53;;;;;;;2.60;1.20;;;23.80;55.70;;;;;;2491053;55;21870;-77
2023/05/15 11:56:23;;;;;;;2.42;1.27;;;23.90;56.20;;;;;;2262382;56;20928;-76
2023/05/15 11:58:59;;;;;;;2.92;1.48;;;23.90;56.20;;;;;;2262780;56;21552;-76
2023/05/15 12:01:25;;;;;;;2.25;1.20;;;24.00;55.80;;;;;;2490594;55;20920;-76
2023/05/15 12:03:53;;;;;;;3.33;1.40;;;24.00;55.40;;;;;;2488670;55;21453;-78
2023/05/15 12:06:19;;;;;;;3.22;1.60;;;24.00;55.10;;;;;;2250584;56;21493;-76
2023/05/15 12:08:50;;;;;;;3.80;1.50;;;24.00;54.90;;;;;;2485338;55;20991;-75
2023/05/15 12:11:20;;;;;;;2.97;1.47;;;24.00;54.40;;;;;;2490310;55;20957;-79
2023/05/15 12:13:53;;;;;;;1.90;1.17;;;24.00;54.50;;;;;;2491669;55;21936;-77
2023/05/15 12:16:24;;;;;;;3.80;1.48;;;24.00;54.50;;;;;;2490549;55;21067;-76
2023/05/15 12:18:51;;;;;;;2.85;1.30;;;24.00;54.30;;;;;;2262247;56;21204;-77
2023/05/15 12:21:24;;;;;;;2.60;1.50;;;24.00;54.50;;;;;;2261915;55;20974;-77
2023/05/15 12:23:51;;;;;;;2.80;1.30;;;24.00;54.20;;;;;;2261106;56;20952;-77
2023/05/15 12:26:22;;;;;;;2.75;1.45;;;24.00;54.30;;;;;;2260512;56;20968;-77
2023/05/15 12:28:49;;;;;;;2.47;1.27;;;24.10;54.40;;;;;;2261846;56;21028;-76
2023/05/15 12:31:18;;;;;;;2.40;1.20;;;24.10;54.30;;;;;;2261695;56;21410;-76
2023/05/15 12:33:44;;;;;;;2.22;1.33;;;24.10;54.40;;;;;;2261995;56;20984;-76
2023/05/15 12:36:11;;;;;;;2.37;1.40;;;24.20;54.30;;;;;;2490671;55;20956;-76
2023/05/15 12:38:38;;;;;;;2.53;1.48;;;24.20;54.20;;;;;;2486151;55;21054;-76
2023/05/15 12:41:05;;;;;;;2.55;1.30;;;24.30;54.20;;;;;;2491149;55;20960;-76
2023/05/15 12:43:31;;;;;;;2.30;1.20;;;24.30;54.00;;;;;;2489827;55;21610;-78
2023/05/15 12:46:00;;;;;;;2.40;1.20;;;24.40;53.80;;;;;;2491562;55;21442;-77
2023/05/15 12:48:32;;;;;;;2.28;1.20;;;24.40;53.30;;;;;;2490671;55;21755;-79
2023/05/15 12:51:06;;;;;;;2.85;1.20;;;24.40;52.80;;;;;;2491268;55;22325;-78
2023/05/15 12:53:33;;;;;;;3.60;0.88;;;24.40;52.10;;;;;;2259430;55;21440;-77
2023/05/15 12:55:59;;;;;;;1.98;0.90;;;24.40;52.30;;;;;;2491896;55;20973;-77
2023/05/15 12:58:26;;;;;;;1.75;0.90;;;24.30;51.80;;;;;;2490428;55;20940;-77
2023/05/15 13:00:53;;;;;;;2.33;0.90;;;24.20;51.40;;;;;;2491400;55;20952;-80
2023/05/15 13:03:22;;;;;;;2.00;0.80;;;24.20;51.40;;;;;;2491028;55;21016;-79
2023/05/15 13:05:48;;;;;;;1.90;0.73;;;24.00;51.20;;;;;;2492290;55;20944;-79
2023/05/15 13:08:18;;;;;;;2.30;1.00;;;23.90;51.20;;;;;;2487919;55;21360;-79
2023/05/15 13:10:54;;;;;;;3.05;1.15;;;23.80;51.30;;;;;;2490603;55;21111;-81
2023/05/15 13:13:21;;;;;;;2.42;0.85;;;23.60;51.20;;;;;;2486242;55;20960;-78
2023/05/15 13:15:49;;;;;;;1.73;0.75;;;23.50;51.50;;;;;;2486643;55;21043;-79
2023/05/15 13:18:16;;;;;;;2.30;1.00;;;23.30;51.60;;;;;;2488870;55;20964;-80
2023/05/15 13:20:45;;;;;;;1.40;0.65;;;23.10;51.70;;;;;;2489904;55;21027;-78
2023/05/15 13:23:19;;;;;;;2.03;0.80;;;22.90;51.80;;;;;;2490843;55;21032;-79
2023/05/15 13:25:50;;;;;;;1.90;0.88;;;22.80;51.80;;;;;;2490422;55;20940;-79
2023/05/15 13:28:20;;;;;;;1.67;0.85;;;22.60;52.00;;;;;;2491474;55;21517;-79